createdAt,value
2023-04-18T00:00:46.149Z,5.10
2023-04-18T00:03:16.008Z,4.40
2023-04-18T00:05:44.041Z,4.70
2023-04-18T00:08:10.908Z,4.80
2023-04-18T00:10:37.355Z,4.40
2023-04-18T00:13:03.944Z,4.80
2023-04-18T00:15:31.225Z,5.10
2023-04-18T00:17:57.925Z,5.30
2023-04-18T00:20:26.198Z,4.40
2023-04-18T00:22:53.304Z,4.80
2023-04-18T00:25:19.803Z,5.00
2023-04-18T00:27:46.227Z,4.20
2023-04-18T00:30:13.110Z,4.90
2023-04-18T00:32:39.624Z,5.10
2023-04-18T00:35:06.774Z,5.10
2023-04-18T00:37:33.306Z,5.00
2023-04-18T00:39:59.735Z,4.70
2023-04-18T00:42:27.922Z,4.70
2023-04-18T00:44:54.410Z,4.40
2023-04-18T00:47:20.932Z,4.60
2023-04-18T00:49:48.478Z,5.10
2023-04-18T00:52:16.350Z,5.40
2023-04-18T00:54:43.654Z,4.50
2023-04-18T00:57:10.574Z,4.90
2023-04-18T00:59:37.239Z,4.90
2023-04-18T01:02:03.991Z,5.00
2023-04-18T01:04:32.680Z,4.40
2023-04-18T01:07:01.004Z,4.00
2023-04-18T01:09:27.769Z,6.20
2023-04-18T01:11:54.203Z,6.40
2023-04-18T01:14:20.743Z,5.40
2023-04-18T01:16:48.468Z,6.20
2023-04-18T01:19:16.985Z,4.90
2023-04-18T01:21:44.110Z,5.30
2023-04-18T01:24:12.734Z,4.90
2023-04-18T01:26:40.023Z,5.60
2023-04-18T01:29:07.033Z,5.60
2023-04-18T01:31:37.765Z,5.60
2023-04-18T01:34:05.670Z,5.00
2023-04-18T01:36:32.903Z,5.00
2023-04-18T01:39:00.086Z,5.50
2023-04-18T01:41:29.062Z,5.10
2023-04-18T01:43:55.510Z,5.20
2023-04-18T01:46:21.920Z,4.40
2023-04-18T01:48:48.392Z,5.60
2023-04-18T01:51:14.883Z,4.70
2023-04-18T01:53:41.843Z,5.30
2023-04-18T01:56:10.206Z,6.20
2023-04-18T01:58:37.372Z,5.30
2023-04-18T02:01:04.194Z,5.30
2023-04-18T02:03:31.062Z,5.30
2023-04-18T02:05:57.674Z,5.70
2023-04-18T02:08:24.243Z,5.70
2023-04-18T02:10:50.793Z,5.60
2023-04-18T02:13:17.290Z,4.60
2023-04-18T02:15:45.933Z,6.70
2023-04-18T02:18:12.476Z,5.50
2023-04-18T02:20:39.275Z,5.60
2023-04-18T02:23:05.822Z,4.90
2023-04-18T02:25:32.293Z,5.60
2023-04-18T02:27:58.793Z,5.50
2023-04-18T02:30:25.491Z,5.40
2023-04-18T02:32:57.174Z,5.90
2023-04-18T02:35:25.392Z,5.70
2023-04-18T02:37:52.244Z,6.10
2023-04-18T02:40:19.420Z,6.40
2023-04-18T02:42:46.238Z,5.30
2023-04-18T02:45:12.822Z,6.50
2023-04-18T02:47:51.194Z,5.60
2023-04-18T02:50:21.509Z,5.30
2023-04-18T02:52:47.991Z,5.80
2023-04-18T02:55:14.544Z,6.00
2023-04-18T02:57:41.023Z,5.00
2023-04-18T03:00:08.729Z,5.90
2023-04-18T03:05:01.951Z,5.00
2023-04-18T03:07:28.417Z,4.90
2023-04-18T03:09:54.862Z,6.00
2023-04-18T03:12:21.381Z,5.00
2023-04-18T03:14:47.890Z,5.30
2023-04-18T03:17:14.375Z,5.80
2023-04-18T03:19:40.875Z,5.90
2023-04-18T03:22:07.436Z,5.50
2023-04-18T03:24:33.888Z,5.00
2023-04-18T03:27:00.730Z,4.80
2023-04-18T03:29:27.215Z,5.10
2023-04-18T03:31:53.642Z,5.30
2023-04-18T03:34:20.162Z,5.40
2023-04-18T03:36:47.954Z,5.20
2023-04-18T03:39:14.934Z,4.70
2023-04-18T03:41:41.378Z,4.50
2023-04-18T03:44:07.859Z,5.40
2023-04-18T03:46:35.114Z,4.70
2023-04-18T03:49:01.622Z,5.20
2023-04-18T03:51:33.979Z,5.10
2023-04-18T03:54:00.473Z,5.00
2023-04-18T03:56:27.143Z,6.00
2023-04-18T03:58:53.573Z,5.20
2023-04-18T04:01:19.992Z,5.60
2023-04-18T04:03:46.985Z,4.70
2023-04-18T04:06:13.536Z,5.40
2023-04-18T04:08:40.008Z,5.30
2023-04-18T04:11:06.448Z,5.60
2023-04-18T04:13:32.898Z,5.60
2023-04-18T04:15:59.431Z,5.00
2023-04-18T04:18:31.013Z,5.30
2023-04-18T04:20:58.975Z,4.20
2023-04-18T04:23:26.822Z,5.90
2023-04-18T04:25:53.941Z,4.90
2023-04-18T04:28:23.826Z,4.70
2023-04-18T04:30:53.849Z,5.10
2023-04-18T04:33:21.514Z,5.10
2023-04-18T04:35:48.428Z,5.90
2023-04-18T04:38:19.982Z,5.50
2023-04-18T04:40:46.431Z,5.00
2023-04-18T04:43:15.334Z,4.90
2023-04-18T04:45:43.159Z,5.00
2023-04-18T04:48:10.232Z,5.50
2023-04-18T04:50:38.214Z,4.60
2023-04-18T04:53:06.433Z,4.50
2023-04-18T04:55:33.399Z,4.60
2023-04-18T04:58:00.183Z,4.90
2023-04-18T05:00:26.790Z,4.70
2023-04-18T05:02:57.548Z,5.10
2023-04-18T05:05:24.213Z,5.20
2023-04-18T05:07:51.373Z,5.70
2023-04-18T05:10:17.934Z,5.30
2023-04-18T05:12:44.572Z,5.10
2023-04-18T05:15:11.262Z,5.20
2023-04-18T05:17:37.792Z,5.40
2023-04-18T05:20:05.467Z,5.00
2023-04-18T05:22:32.454Z,5.70
2023-04-18T05:24:59.182Z,5.80
2023-04-18T05:27:26.466Z,4.60
2023-04-18T05:29:52.970Z,4.90
2023-04-18T05:32:19.624Z,6.10
2023-04-18T05:34:46.158Z,5.10
2023-04-18T05:37:12.666Z,5.20
2023-04-18T05:39:40.025Z,5.70
2023-04-18T05:42:06.491Z,4.80
2023-04-18T05:44:33.019Z,4.30
2023-04-18T05:46:59.611Z,5.30
2023-04-18T05:49:26.085Z,5.10
2023-04-18T05:51:52.989Z,3.70
2023-04-18T05:54:21.549Z,4.30
2023-04-18T05:56:48.255Z,5.00
2023-04-18T05:59:14.697Z,4.70
2023-04-18T06:01:41.237Z,4.80
2023-04-18T06:04:08.715Z,5.10
2023-04-18T06:06:36.327Z,4.90
2023-04-18T06:09:02.912Z,4.60
2023-04-18T06:11:29.411Z,5.30
2023-04-18T06:13:56.086Z,5.00
2023-04-18T06:16:22.676Z,4.80
2023-04-18T06:18:49.175Z,5.00
2023-04-18T06:21:15.694Z,4.80
2023-04-18T06:23:42.132Z,4.90
2023-04-18T06:26:09.316Z,4.90
2023-04-18T06:28:35.930Z,3.80
2023-04-18T06:31:02.606Z,4.10
2023-04-18T06:33:29.117Z,5.40
2023-04-18T06:35:55.803Z,4.90
2023-04-18T06:38:22.502Z,5.70
2023-04-18T06:40:48.916Z,5.30
2023-04-18T06:43:15.478Z,5.10
2023-04-18T06:45:42.031Z,4.80
2023-04-18T06:48:10.822Z,5.10
2023-04-18T06:50:37.367Z,5.00
2023-04-18T06:53:03.810Z,4.90
2023-04-18T06:55:30.711Z,5.30
2023-04-18T06:57:57.291Z,4.90
2023-04-18T07:00:23.785Z,5.10
2023-04-18T07:02:50.552Z,5.10
2023-04-18T07:05:17.135Z,5.00
2023-04-18T07:07:43.626Z,4.60
2023-04-18T07:10:11.451Z,5.30
2023-04-18T07:12:38.059Z,5.20
2023-04-18T07:15:05.279Z,5.20
2023-04-18T07:17:31.972Z,5.00
2023-04-18T07:19:58.702Z,4.40
2023-04-18T07:22:25.484Z,4.30
2023-04-18T07:24:51.897Z,4.70
2023-04-18T07:27:18.340Z,4.50
2023-04-18T07:29:44.809Z,5.10
2023-04-18T07:32:11.251Z,5.30
2023-04-18T07:34:37.750Z,5.30
2023-04-18T07:37:04.416Z,5.10
2023-04-18T07:39:35.789Z,4.80
2023-04-18T07:42:03.974Z,5.10
2023-04-18T07:44:30.731Z,4.80
2023-04-18T07:46:57.367Z,4.30
2023-04-18T07:49:24.150Z,4.80
2023-04-18T07:51:50.634Z,4.80
2023-04-18T07:54:17.158Z,5.20
2023-04-18T07:56:43.644Z,5.20
2023-04-18T07:59:11.474Z,5.00
2023-04-18T08:01:37.998Z,5.00
2023-04-18T08:04:04.721Z,5.40
2023-04-18T08:06:31.444Z,5.10
2023-04-18T08:08:59.099Z,5.50
2023-04-18T08:11:25.647Z,5.40
2023-04-18T08:13:52.155Z,5.20
2023-04-18T08:16:18.666Z,6.70
2023-04-18T08:18:45.373Z,4.80
2023-04-18T08:21:11.932Z,5.80
2023-04-18T08:23:38.454Z,5.80
2023-04-18T08:26:05.035Z,5.30
2023-04-18T08:28:31.501Z,5.80
2023-04-18T08:30:58.107Z,5.20
2023-04-18T08:33:24.663Z,5.60
2023-04-18T08:35:51.544Z,5.60
2023-04-18T08:38:18.972Z,5.10
2023-04-18T08:40:47.835Z,5.10
2023-04-18T08:43:15.200Z,5.20
2023-04-18T08:45:43.479Z,5.70
2023-04-18T08:48:13.842Z,5.80
2023-04-18T08:50:41.588Z,4.80
2023-04-18T08:53:08.836Z,5.20
2023-04-18T08:55:35.775Z,5.50
2023-04-18T08:58:03.218Z,5.20
2023-04-18T09:00:30.498Z,5.40
2023-04-18T09:02:57.625Z,5.40
2023-04-18T09:07:53.771Z,5.70
2023-04-18T09:10:29.219Z,5.30
2023-04-18T09:12:57.778Z,5.90
2023-04-18T09:15:29.408Z,5.60
2023-04-18T09:17:58.520Z,5.60
2023-04-18T09:20:41.155Z,6.00
2023-04-18T09:23:10.767Z,5.80
2023-04-18T09:25:46.743Z,4.90
2023-04-18T09:28:23.824Z,5.50
2023-04-18T09:30:52.458Z,5.40
2023-04-18T09:33:28.266Z,5.50
2023-04-18T09:35:55.843Z,5.70
2023-04-18T09:38:39.929Z,5.50
2023-04-18T09:41:15.665Z,5.20
2023-04-18T09:43:42.306Z,5.30
2023-04-18T09:46:09.441Z,5.50
2023-04-18T09:48:36.115Z,5.80
2023-04-18T09:51:07.731Z,5.80
2023-04-18T09:53:41.852Z,6.00
2023-04-18T09:56:27.729Z,6.00
2023-04-18T09:59:06.289Z,5.60
2023-04-18T10:01:33.925Z,6.00
2023-04-18T10:04:04.182Z,5.50
2023-04-18T10:06:33.481Z,6.20
2023-04-18T10:09:04.148Z,6.30
2023-04-18T10:11:32.128Z,5.50
2023-04-18T10:14:02.614Z,5.70
2023-04-18T10:16:29.644Z,5.20
2023-04-18T10:18:56.541Z,5.70
2023-04-18T10:21:23.003Z,5.90
2023-04-18T10:23:50.399Z,5.70
2023-04-18T10:26:16.969Z,6.20
2023-04-18T10:28:59.547Z,5.20
2023-04-18T10:31:27.597Z,5.60
2023-04-18T10:34:04.548Z,5.70
2023-04-18T10:36:32.592Z,5.90
2023-04-18T10:39:21.866Z,5.30
2023-04-18T10:41:50.711Z,5.40
2023-04-18T10:44:19.821Z,5.20
2023-04-18T10:46:52.332Z,5.70
2023-04-18T10:49:24.577Z,5.90
2023-04-18T10:51:55.259Z,5.70
2023-04-18T10:54:38.900Z,5.50
2023-04-18T10:57:07.660Z,5.30
2023-04-18T10:59:38.702Z,5.00
2023-04-18T11:02:12.625Z,5.60
2023-04-18T11:04:39.464Z,5.70
2023-04-18T11:07:06.015Z,5.20
2023-04-18T11:09:32.487Z,5.90
2023-04-18T11:12:07.831Z,5.20
2023-04-18T11:14:40.979Z,5.20
2023-04-18T11:17:24.958Z,5.60
2023-04-18T11:20:00.828Z,5.20
2023-04-18T11:22:27.433Z,5.00
2023-04-18T11:25:07.152Z,5.90
2023-04-18T11:27:33.882Z,5.00
2023-04-18T11:30:00.568Z,4.90
2023-04-18T11:32:27.148Z,4.90
2023-04-18T11:34:54.853Z,4.20
2023-04-18T11:37:21.866Z,4.60
2023-04-18T11:39:48.358Z,4.30
2023-04-18T11:42:14.930Z,4.00
2023-04-18T11:44:45.873Z,4.30
2023-04-18T11:47:29.839Z,3.90
2023-04-18T11:49:57.367Z,4.40
2023-04-18T11:52:25.044Z,3.90
2023-04-18T11:54:51.665Z,4.00
2023-04-18T11:57:30.863Z,4.20
2023-04-18T11:59:59.527Z,4.00
2023-04-18T12:02:28.202Z,3.90
2023-04-18T12:05:00.185Z,3.90
2023-04-18T12:07:45.921Z,3.50
2023-04-18T12:10:27.587Z,3.80
2023-04-18T12:12:55.812Z,3.60
2023-04-18T12:15:28.100Z,3.30
2023-04-18T12:17:59.877Z,3.30
2023-04-18T12:20:35.128Z,3.20
2023-04-18T12:23:02.355Z,3.20
2023-04-18T12:28:15.064Z,3.70
2023-04-18T12:30:42.239Z,3.40
2023-04-18T12:35:38.030Z,3.30
2023-04-18T12:38:04.867Z,3.50
2023-04-18T12:40:31.366Z,3.50
2023-04-18T12:42:57.848Z,3.30
2023-04-18T12:45:24.729Z,3.00
2023-04-18T12:47:53.099Z,3.50
2023-04-18T12:50:26.367Z,3.50
2023-04-18T12:52:54.807Z,3.20
2023-04-18T12:55:22.835Z,3.50
2023-04-18T12:57:52.336Z,2.80
2023-04-18T13:00:18.768Z,3.50
2023-04-18T13:02:45.962Z,3.00
2023-04-18T13:05:15.775Z,3.10
2023-04-18T13:07:43.156Z,3.10
2023-04-18T13:10:27.706Z,3.50
2023-04-18T13:12:54.199Z,3.20
2023-04-18T13:15:23.956Z,3.00
2023-04-18T13:17:50.507Z,3.20
2023-04-18T13:20:17.154Z,3.20
2023-04-18T13:22:44.503Z,3.80
2023-04-18T13:25:11.416Z,2.90
2023-04-18T13:27:41.450Z,3.10
2023-04-18T13:30:10.646Z,3.50
2023-04-18T13:32:39.172Z,2.90
2023-04-18T13:35:08.288Z,4.00
2023-04-18T13:37:34.867Z,3.60
2023-04-18T13:40:01.471Z,3.60
2023-04-18T13:42:28.027Z,3.00
2023-04-18T13:44:54.509Z,3.50
2023-04-18T13:47:21.120Z,3.30
2023-04-18T13:49:47.629Z,3.20
2023-04-18T13:52:14.175Z,3.30
2023-04-18T13:54:41.479Z,3.60
2023-04-18T13:57:11.726Z,2.90
2023-04-18T13:59:40.576Z,3.00
2023-04-18T14:02:08.543Z,3.00
2023-04-18T14:04:35.764Z,2.80
2023-04-18T14:09:32.996Z,2.90
2023-04-18T14:11:59.608Z,2.70
2023-04-18T14:14:26.058Z,2.60
2023-04-18T14:16:53.722Z,2.60
2023-04-18T14:19:20.509Z,2.80
2023-04-18T14:21:47.968Z,2.50
2023-04-18T14:24:14.511Z,2.90
2023-04-18T14:26:41.018Z,2.80
2023-04-18T14:29:07.468Z,2.50
2023-04-18T14:31:34.045Z,3.00
2023-04-18T14:34:00.603Z,2.90
2023-04-18T14:36:27.830Z,2.70
2023-04-18T14:41:21.671Z,2.40
2023-04-18T14:43:48.803Z,2.50
2023-04-18T14:46:18.139Z,2.40
2023-04-18T14:48:46.861Z,2.60
2023-04-18T14:51:15.460Z,2.60
2023-04-18T14:53:42.147Z,2.50
2023-04-18T14:56:08.826Z,2.30
2023-04-18T14:58:35.303Z,3.10
2023-04-18T15:01:01.768Z,2.60
2023-04-18T15:03:28.744Z,2.40
2023-04-18T15:05:56.460Z,3.30
2023-04-18T15:08:22.956Z,2.50
2023-04-18T15:10:49.416Z,2.70
2023-04-18T15:13:16.150Z,2.70
2023-04-18T15:15:42.633Z,2.40
2023-04-18T15:18:10.361Z,2.50
2023-04-18T15:20:37.301Z,2.30
2023-04-18T15:23:03.783Z,2.30
2023-04-18T15:25:31.005Z,2.40
2023-04-18T15:30:25.565Z,1.20
2023-04-18T15:32:52.330Z,2.40
